Terminal Aerodrome Forecast
Issued by NWS Tuscon, AZ

Home | Current Version | Previous Version | Text Only | Print | Product List | Glossary On
Versions: 1 2 3 4 5 6 7 8 9 10 11 12 13
000
FTUS45 KTWC 311732
TAFDUG
TAF
KDUG 311732Z 3118/0118 12008KT P6SM FEW070 SCT120
     FM312200 09010KT P6SM VCSH SCT060 BKN100
     FM010300 05007KT P6SM FEW070 SCT100 OVC150
     FM010800 VRB04KT P6SM SCT080 BKN120=

USA.gov is the U.S. government's official web portal to all federal, state and local government web resources and services.